Time;durP1;ratioP1;P1;durP2;ratioP2;P2;SDS_P1;SDS_P2;PMS_P1;PMS_P2;Temp;Humidity;BMP_temperature;BMP_pressure;BME280_temperature;BME280_humidity;BME280_pressure;Samples;Min_cycle;Max_cycle;Signal;HPM_P1;HPM_P2
2021/12/14 00:01:54;;;;;;;;;;;9.80;99.90;;;;;;5069921;28;19925;-85
2021/12/14 00:04:25;;;;;;;;;;;9.80;99.90;;;;;;5061846;28;20344;-85
2021/12/14 00:06:53;;;;;;;;;;;9.80;99.90;;;;;;5068204;28;19928;-86
2021/12/14 00:09:27;;;;;;;;;;;9.80;99.90;;;;;;5067241;28;19927;-85
2021/12/14 00:12:09;;;;;;;;;;;9.80;99.90;;;;;;5065323;28;20316;-86
2021/12/14 00:17:27;;;;;;;;;;;9.80;99.90;;;;;;5074089;28;19931;-85
2021/12/14 00:19:55;;;;;;;;;;;9.80;99.90;;;;;;5080081;28;19967;-85
2021/12/14 00:22:32;;;;;;;;;;;9.70;99.90;;;;;;5075516;28;19924;-85
2021/12/14 00:24:59;;;;;;;;;;;10.70;99.90;;;;;;5062128;28;19929;-86
2021/12/14 00:27:27;;;;;;;;;;;9.70;99.90;;;;;;5069996;28;19923;-85
2021/12/14 00:29:55;;;;;;;;;;;9.70;99.90;;;;;;5070897;28;19926;-86
2021/12/14 00:32:24;;;;;;;;;;;9.70;99.90;;;;;;5073646;28;19920;-86
2021/12/14 00:34:53;;;;;;;;;;;9.70;99.90;;;;;;5069852;28;20346;-84
2021/12/14 00:37:22;;;;;;;;;;;9.70;99.90;;;;;;5069497;28;19925;-86
2021/12/14 00:39:51;;;;;;;;;;;9.70;99.90;;;;;;5070489;28;19934;-86
2021/12/14 00:42:18;;;;;;;;;;;9.60;99.90;;;;;;5062764;28;20406;-86
2021/12/14 00:44:45;;;;;;;;;;;9.60;99.90;;;;;;5068277;28;19935;-86
2021/12/14 00:47:12;;;;;;;;;;;9.60;99.90;;;;;;5070504;28;19928;-85
2021/12/14 00:49:40;;;;;;;;;;;9.60;99.90;;;;;;5067477;28;19925;-84
2021/12/14 00:52:08;;;;;;;;;;;9.60;99.90;;;;;;5068600;28;19927;-85
2021/12/14 00:54:35;;;;;;;;;;;9.60;99.90;;;;;;5070627;28;19924;-86
2021/12/14 00:57:05;;;;;;;;;;;9.50;99.90;;;;;;5068805;28;19921;-85
2021/12/14 00:59:32;;;;;;;;;;;9.50;99.90;;;;;;5069413;28;20576;-86
2021/12/14 01:02:03;;;;;;;;;;;9.40;99.90;;;;;;5068710;28;19931;-85
2021/12/14 01:04:32;;;;;;;;;;;9.40;99.90;;;;;;5072693;28;19935;-86
2021/12/14 01:06:59;;;;;;;;;;;9.40;99.90;;;;;;5078590;28;19908;-85
2021/12/14 01:09:28;;;;;;;;;;;9.60;99.90;;;;;;5087934;28;20010;-85
2021/12/14 01:11:58;;;;;;;;;;;9.50;99.90;;;;;;5082780;28;20008;-86
2021/12/14 01:14:31;;;;;;;;;;;9.40;99.90;;;;;;5068897;28;20021;-86
2021/12/14 01:17:09;;;;;;;;;;;9.50;99.90;;;;;;5066449;28;19924;-85
2021/12/14 01:19:38;;;;;;;;;;;9.50;99.90;;;;;;5066555;28;20019;-86
2021/12/14 01:22:31;;;;;;;;;;;9.60;99.90;;;;;;5066203;28;21344;-86
2021/12/14 01:25:02;;;;;;;;;;;9.40;99.90;;;;;;5066269;28;19924;-85
2021/12/14 01:27:32;;;;;;;;;;;9.40;99.90;;;;;;5068735;28;19925;-86
2021/12/14 01:30:04;;;;;;;;;;;9.40;99.90;;;;;;5067549;28;19924;-85
2021/12/14 01:32:35;;;;;;;;;;;9.40;99.90;;;;;;5067729;28;19921;-86
2021/12/14 01:35:02;;;;;;;;;;;9.40;99.90;;;;;;5066583;28;20303;-86
2021/12/14 01:37:39;;;;;;;;;;;9.40;99.90;;;;;;5066262;28;20345;-86
2021/12/14 01:40:17;;;;;;;;;;;9.30;99.90;;;;;;5066137;28;19924;-85
2021/12/14 01:42:46;;;;;;;;;;;9.30;99.90;;;;;;5066725;28;19924;-85
2021/12/14 01:45:17;;;;;;;;;;;9.30;99.90;;;;;;5064130;28;19928;-84
2021/12/14 01:47:45;;;;;;;;;;;9.30;99.90;;;;;;5066810;28;19925;-85
2021/12/14 01:50:41;;;;;;;;;;;9.30;99.90;;;;;;5063810;28;19983;-85
2021/12/14 01:53:35;;;;;;;;;;;9.30;99.90;;;;;;5065071;28;19927;-84
2021/12/14 01:56:05;;;;;;;;;;;9.30;99.90;;;;;;5067052;28;20349;-86
2021/12/14 01:58:34;;;;;;;;;;;9.30;99.90;;;;;;5066097;28;19924;-86
2021/12/14 02:01:05;;;;;;;;;;;9.20;99.90;;;;;;5067176;28;20384;-86
2021/12/14 02:03:34;;;;;;;;;;;9.20;99.90;;;;;;5067183;28;19921;-85
2021/12/14 02:06:00;;;;;;;;;;;9.30;99.90;;;;;;5065400;28;19985;-85
2021/12/14 02:08:32;;;;;;;;;;;9.30;99.90;;;;;;5067403;28;19936;-86
2021/12/14 02:11:00;;;;;;;;;;;9.30;99.90;;;;;;5067469;28;19973;-87
2021/12/14 02:13:29;;;;;;;;;;;9.30;99.90;;;;;;5070276;28;21286;-85
2021/12/14 02:15:56;;;;;;;;;;;9.30;99.90;;;;;;5070306;28;20279;-85
2021/12/14 02:18:30;;;;;;;;;;;9.30;99.90;;;;;;5072387;28;19931;-85
2021/12/14 02:21:00;;;;;;;;;;;9.30;99.90;;;;;;5073651;28;19966;-85
2021/12/14 02:23:28;;;;;;;;;;;9.40;99.90;;;;;;5088686;28;19950;-85
2021/12/14 02:25:56;;;;;;;;;;;9.30;99.90;;;;;;5090666;28;19968;-84
2021/12/14 02:28:23;;;;;;;;;;;9.30;99.90;;;;;;5091142;28;20067;-85
2021/12/14 02:30:52;;;;;;;;;;;9.30;99.90;;;;;;5073977;28;19924;-86
2021/12/14 02:33:23;;;;;;;;;;;9.30;99.90;;;;;;5067603;28;19951;-86
2021/12/14 02:35:51;;;;;;;;;;;9.30;99.90;;;;;;5071572;28;19928;-85
2021/12/14 02:38:20;;;;;;;;;;;9.40;99.90;;;;;;5056049;28;19994;-85
2021/12/14 02:40:56;;;;;;;;;;;9.20;99.90;;;;;;5076437;28;19981;-86
2021/12/14 02:43:29;;;;;;;;;;;9.20;99.90;;;;;;5069462;28;19924;-86
2021/12/14 02:46:02;;;;;;;;;;;9.20;99.90;;;;;;5081917;28;20392;-85
2021/12/14 02:48:29;;;;;;;;;;;9.20;99.90;;;;;;5070953;28;19981;-86
2021/12/14 02:50:56;;;;;;;;;;;9.20;99.90;;;;;;5075558;28;19929;-86
2021/12/14 02:53:24;;;;;;;;;;;9.20;99.90;;;;;;5068592;28;19925;-84
2021/12/14 02:55:51;;;;;;;;;;;9.10;99.90;;;;;;5068904;28;20073;-84
2021/12/14 02:58:18;;;;;;;;;;;9.10;99.90;;;;;;5068038;28;19925;-84
2021/12/14 03:00:50;;;;;;;;;;;9.10;99.90;;;;;;5070167;28;19931;-85
2021/12/14 03:03:18;;;;;;;;;;;9.00;99.90;;;;;;5069371;28;19939;-85
2021/12/14 03:05:47;;;;;;;;;;;9.30;99.90;;;;;;5069281;28;20016;-84
2021/12/14 03:08:15;;;;;;;;;;;9.10;99.90;;;;;;5054277;28;20016;-84
2021/12/14 03:10:55;;;;;;;;;;;9.10;99.90;;;;;;5068929;28;19974;-85
2021/12/14 03:13:23;;;;;;;;;;;9.10;99.90;;;;;;5067530;28;19967;-85
2021/12/14 03:15:52;;;;;;;;;;;9.10;99.90;;;;;;5069331;28;19928;-85
2021/12/14 03:18:21;;;;;;;;;;;9.10;99.90;;;;;;5062777;28;19925;-85
2021/12/14 03:20:49;;;;;;;;;;;9.00;99.90;;;;;;5070447;28;19990;-84
2021/12/14 03:23:17;;;;;;;;;;;9.00;99.90;;;;;;5066668;28;19932;-85
2021/12/14 03:25:47;;;;;;;;;;;9.00;99.90;;;;;;5069561;28;19928;-84
2021/12/14 03:28:16;;;;;;;24.40;8.30;;;9.00;99.90;;;;;;5070264;28;20485;-84
2021/12/14 03:30:51;;;;;;;24.87;9.07;;;9.00;99.90;;;;;;5071362;28;20294;-85
2021/12/14 03:33:22;;;;;;;;;;;9.00;99.90;;;;;;5064484;28;20217;-85
2021/12/14 03:35:51;;;;;;;;;;;9.00;99.90;;;;;;5070758;28;19924;-84
2021/12/14 03:38:20;;;;;;;;;;;9.00;99.90;;;;;;5073844;28;19978;-84
2021/12/14 03:40:54;;;;;;;;;;;9.00;99.90;;;;;;5076957;28;19988;-84
2021/12/14 03:43:21;;;;;;;;;;;9.00;99.90;;;;;;5076888;28;19971;-84
2021/12/14 03:45:49;;;;;;;;;;;8.90;99.90;;;;;;5085583;28;19935;-84
2021/12/14 03:48:17;;;;;;;;;;;8.80;99.90;;;;;;5088271;28;20019;-84
2021/12/14 03:50:44;;;;;;;;;;;8.80;99.90;;;;;;5088608;28;19925;-82
2021/12/14 03:53:12;;;;;;;;;;;8.80;99.90;;;;;;5087238;28;19928;-84
2021/12/14 03:55:43;;;;;;;;;;;8.70;99.90;;;;;;5086536;28;19928;-84
2021/12/14 03:58:14;;;;;;;;;;;9.80;99.90;;;;;;5092337;28;20275;-84
2021/12/14 04:00:44;;;;;;;;;;;8.70;99.90;;;;;;5089106;28;19959;-84
2021/12/14 04:03:14;;;;;;;;;;;8.70;99.90;;;;;;5086731;28;19950;-84
2021/12/14 04:05:59;;;;;;;;;;;8.70;99.90;;;;;;5080843;28;19935;-84
2021/12/14 04:08:27;;;;;;;;;;;8.70;99.90;;;;;;5076579;28;19924;-85
2021/12/14 04:10:56;;;;;;;;;;;8.70;99.90;;;;;;5078349;28;19935;-85
2021/12/14 04:13:26;;;;;;;;;;;8.70;99.90;;;;;;5065362;28;20727;-85
2021/12/14 04:15:55;;;;;;;;;;;8.70;99.90;;;;;;5073392;28;20004;-86
2021/12/14 04:18:25;;;;;;;;;;;8.70;99.90;;;;;;5073564;28;19932;-86
2021/12/14 04:20:55;;;;;;;;;;;8.70;99.90;;;;;;5071486;28;19940;-86
2021/12/14 04:23:24;;;;;;;;;;;8.70;99.90;;;;;;5072651;28;19983;-86
2021/12/14 04:25:52;;;;;;;;;;;9.30;99.90;;;;;;5076268;28;20446;-86
2021/12/14 04:28:21;;;;;;;;;;;8.70;99.90;;;;;;5073009;28;20013;-85
2021/12/14 04:30:49;;;;;;;;;;;8.70;99.90;;;;;;5077626;28;19970;-86
2021/12/14 04:33:22;;;;;;;;;;;8.80;99.90;;;;;;5070482;28;19932;-86
2021/12/14 04:35:50;;;;;;;;;;;8.80;99.90;;;;;;5071566;28;19924;-86
2021/12/14 04:38:22;;;;;;;;;;;8.80;99.90;;;;;;5073634;28;20058;-86
2021/12/14 04:51:58;;;;;;;;;;;8.80;99.90;;;;;;5062856;28;20399;-83
2021/12/14 04:54:28;;;;;;;;;;;8.80;99.90;;;;;;5066018;28;19928;-84
2021/12/14 04:56:54;;;;;;;;;;;8.80;99.90;;;;;;5063604;28;19928;-84
2021/12/14 04:59:24;;;;;;;;;;;8.70;99.90;;;;;;5069055;28;19928;-84
2021/12/14 05:01:54;;;;;;;;;;;8.70;99.90;;;;;;5067697;28;19924;-84
2021/12/14 05:04:38;;;;;;;;;;;8.80;99.90;;;;;;5060982;28;20360;-84
2021/12/14 05:07:26;;;;;;;;;;;8.70;99.90;;;;;;5066008;28;19932;-84
2021/12/14 05:09:51;;;;;;;;;;;8.70;99.90;;;;;;5066779;28;19929;-84
2021/12/14 05:12:23;;;;;;;;;;;8.80;99.90;;;;;;5068313;28;19978;-84
2021/12/14 05:14:58;;;;;;;;;;;8.80;99.90;;;;;;5084218;28;19959;-84
2021/12/14 05:17:31;;;;;;;;;;;8.80;99.90;;;;;;5087697;28;19913;-84
2021/12/14 05:19:59;;;;;;;;;;;8.80;99.90;;;;;;5084119;28;20412;-85
2021/12/14 05:22:31;;;;;;;;;;;8.80;99.90;;;;;;5068619;28;19924;-88
2021/12/14 05:25:03;;;;;;;;;;;9.70;99.90;;;;;;5067986;28;20392;-87
2021/12/14 05:27:33;;;;;;;;;;;10.70;99.90;;;;;;5067403;28;20091;-87
2021/12/14 05:30:05;;;;;;;;;;;9.00;99.90;;;;;;5062527;28;19990;-87
2021/12/14 05:32:41;;;;;;;;;;;8.80;99.90;;;;;;5064683;28;20031;-89
2021/12/14 05:35:10;;;;;;;;;;;8.80;99.90;;;;;;5061455;28;19936;-88
2021/12/14 05:37:44;;;;;;;;;;;8.90;99.90;;;;;;5075074;28;19924;-86
2021/12/14 05:40:20;;;;;;;;;;;8.80;99.90;;;;;;5063232;28;20637;-86
2021/12/14 05:46:02;;;;;;;;;;;8.80;99.90;;;;;;5027257;28;19924;-85
2021/12/14 05:48:37;;;;;;;;;;;8.80;99.90;;;;;;5064074;28;19929;-84
2021/12/14 05:51:05;;;;;;;;;;;8.80;99.90;;;;;;5068546;28;20047;-85
2021/12/14 05:53:34;;;;;;;;;;;8.80;99.90;;;;;;5066782;28;19931;-84
2021/12/14 05:56:02;;;;;;;;;;;8.70;99.90;;;;;;5064909;28;20019;-86
2021/12/14 05:58:33;;;;;;;;;;;8.70;99.90;;;;;;5067829;28;19943;-87
2021/12/14 06:01:01;;;;;;;;;;;8.70;99.90;;;;;;5068739;28;20069;-85
2021/12/14 06:03:30;;;;;;;;;;;8.70;99.90;;;;;;5069714;28;19932;-84
2021/12/14 06:06:01;;;;;;;;;;;8.70;99.90;;;;;;5071217;28;19996;-84
2021/12/14 06:08:30;;;;;;;;;;;8.70;99.90;;;;;;5073062;28;19924;-83
2021/12/14 06:11:03;;;;;;;;;;;8.70;99.90;;;;;;5076746;28;19952;-84
2021/12/14 06:13:39;;;;;;;;;;;8.70;99.90;;;;;;5074054;28;19991;-84
2021/12/14 06:16:08;;;;;;;;;;;8.70;99.90;;;;;;5074086;28;19964;-85
2021/12/14 06:18:37;;;;;;;;;;;8.70;99.90;;;;;;5069581;28;19928;-84
2021/12/14 06:21:31;;;;;;;;;;;8.70;99.90;;;;;;5075592;28;19928;-84
2021/12/14 06:24:02;;;;;;;;;;;8.80;99.90;;;;;;5084356;28;19928;-83
2021/12/14 06:26:35;;;;;;;;;;;8.80;99.90;;;;;;5075801;28;21247;-85
2021/12/14 06:29:06;;;;;;;;;;;8.80;99.90;;;;;;5074348;28;20011;-84
2021/12/14 06:31:33;;;;;;;;;;;8.80;99.90;;;;;;5075619;28;19977;-84
2021/12/14 06:34:10;;;;;;;;;;;8.80;99.90;;;;;;5067359;28;19959;-84
2021/12/14 06:36:51;;;;;;;;;;;8.80;99.90;;;;;;5071258;28;20237;-87
2021/12/14 06:39:19;;;;;;;;;;;8.80;99.90;;;;;;5070813;28;19928;-84
2021/12/14 06:41:47;;;;;;;;;;;8.80;99.90;;;;;;5071619;28;19924;-84
2021/12/14 06:44:14;;;;;;;;;;;8.80;99.90;;;;;;5071108;28;20352;-85
2021/12/14 06:46:42;;;;;;;;;;;8.80;99.90;;;;;;5070001;28;19924;-85
2021/12/14 06:49:16;;;;;;;;;;;8.80;99.90;;;;;;5073306;28;19935;-85
2021/12/14 06:51:49;;;;;;;;;;;8.80;99.90;;;;;;5072127;28;19930;-85
2021/12/14 06:54:38;;;;;;;;;;;8.90;99.90;;;;;;5069622;28;20396;-87
2021/12/14 06:57:23;;;;;;;;;;;8.80;99.90;;;;;;5076768;28;20010;-85
2021/12/14 07:00:04;;;;;;;;;;;8.80;99.90;;;;;;5081306;28;20011;-85
2021/12/14 07:02:53;;;;;;;;;;;8.80;99.90;;;;;;5069464;28;19935;-85
2021/12/14 07:05:43;;;;;;;;;;;8.80;99.90;;;;;;5080781;28;19929;-85
2021/12/14 07:08:14;;;;;;;;;;;8.90;99.90;;;;;;5075771;28;19935;-84
2021/12/14 07:10:43;;;;;;;;;;;8.90;99.90;;;;;;5076533;28;19988;-84
2021/12/14 07:13:11;;;;;;;;;;;8.90;99.90;;;;;;5068244;28;20347;-85
2021/12/14 07:15:37;;;;;;;;;;;8.90;99.90;;;;;;5067859;28;19925;-85
2021/12/14 07:18:07;;;;;;;;;;;8.90;99.90;;;;;;5067570;28;19924;-85
2021/12/14 07:20:38;;;;;;;;;;;8.90;99.90;;;;;;5067086;28;19965;-85
2021/12/14 07:23:05;;;;;;;;;;;8.90;99.90;;;;;;5068271;28;19943;-86
2021/12/14 07:25:35;;;;;;;;;;;8.90;99.90;;;;;;5071469;28;20270;-86
2021/12/14 07:28:05;;;;;;;;;;;8.90;99.90;;;;;;5069089;28;19925;-84
2021/12/14 07:30:33;;;;;;;;;;;9.00;99.90;;;;;;5066732;28;19929;-84
2021/12/14 07:33:02;;;;;;;;;;;9.00;99.90;;;;;;5071715;28;20014;-83
2021/12/14 07:35:34;;;;;;;;;;;9.00;99.90;;;;;;5068649;28;19920;-83
2021/12/14 07:38:03;;;;;;;;;;;9.00;99.90;;;;;;5078248;28;19924;-84
2021/12/14 07:40:38;;;;;;;;;;;9.00;99.90;;;;;;5078686;28;20050;-85
2021/12/14 07:43:10;;;;;;;;;;;9.00;99.90;;;;;;5079022;28;19986;-89
2021/12/14 07:45:42;;;;;;;;;;;9.00;99.90;;;;;;5057091;28;19928;-86
2021/12/14 07:48:09;;;;;;;;;;;9.00;99.90;;;;;;5060516;28;20001;-84
2021/12/14 07:50:37;;;;;;;;;;;9.00;99.90;;;;;;5062543;28;19931;-86
2021/12/14 07:53:04;;;;;;;;;;;9.00;99.90;;;;;;5063908;28;20296;-86
2021/12/14 07:55:31;;;;;;;;;;;9.00;99.90;;;;;;5069429;28;19935;-87
2021/12/14 07:58:00;;;;;;;;;;;9.00;99.90;;;;;;5064073;28;19932;-90
2021/12/14 08:00:29;;;;;;;;;;;9.00;99.90;;;;;;5064945;28;19925;-87
2021/12/14 08:02:57;;;;;;;;;;;9.00;99.90;;;;;;5064959;28;19924;-86
2021/12/14 08:05:27;;;;;;;;;;;9.00;99.90;;;;;;5062149;28;19966;-85
2021/12/14 08:07:56;;;;;;;;;;;9.00;99.90;;;;;;5065512;28;19972;-85
2021/12/14 08:10:24;;;;;;;;;;;9.00;99.90;;;;;;5064657;28;19944;-86
2021/12/14 08:12:54;;;;;;;;;;;8.90;99.90;;;;;;5062449;28;19997;-85
2021/12/14 08:15:24;;;;;;;;;;;9.00;99.90;;;;;;5061538;28;19974;-86
2021/12/14 08:18:03;;;;;;;;;;;9.00;99.90;;;;;;5064346;28;20027;-87
2021/12/14 08:20:30;;;;;;;;;;;9.10;99.90;;;;;;5065073;28;20272;-87
2021/12/14 08:22:58;;;;;;;;;;;9.10;99.90;;;;;;5052037;28;19998;-87
2021/12/14 08:25:27;;;;;;;;;;;9.20;99.90;;;;;;5064875;28;19924;-88
2021/12/14 08:28:00;;;;;;;;;;;9.20;99.90;;;;;;5064914;28;19928;-87
2021/12/14 08:30:29;;;;;;;;;;;9.20;99.90;;;;;;5065431;28;19924;-86
2021/12/14 08:32:56;;;;;;;;;;;9.20;99.90;;;;;;5079371;28;20374;-87
2021/12/14 08:35:23;;;;;;;;;;;9.20;99.90;;;;;;5078882;28;19921;-87
2021/12/14 08:37:53;;;;;;;;;;;9.20;99.90;;;;;;5075696;28;19977;-87
2021/12/14 08:40:24;;;;;;;;;;;9.20;99.90;;;;;;5068983;28;19924;-87
2021/12/14 08:43:02;;;;;;;;;;;9.20;99.90;;;;;;5068695;28;19920;-87
2021/12/14 08:45:33;;;;;;;;;;;9.30;99.90;;;;;;5070665;28;19924;-87
2021/12/14 08:48:09;;;;;;;;;;;9.30;99.90;;;;;;5067570;28;19947;-88
2021/12/14 08:50:38;;;;;;;;;;;9.30;99.90;;;;;;5066842;28;19940;-88
2021/12/14 08:53:08;;;;;;;;;;;9.30;99.90;;;;;;5091443;28;19929;-88
2021/12/14 08:55:36;;;;;;;;;;;9.30;99.90;;;;;;5073057;28;19952;-86
2021/12/14 08:58:04;;;;;;;;;;;9.30;99.90;;;;;;5070754;28;19929;-87
2021/12/14 09:00:34;;;;;;;;;;;9.30;99.90;;;;;;5071277;28;20344;-86
2021/12/14 09:03:03;;;;;;;;;;;9.30;99.90;;;;;;5074367;28;19924;-87
2021/12/14 09:05:32;;;;;;;;;;;9.30;99.90;;;;;;5079868;28;19920;-87
2021/12/14 09:07:59;;;;;;;;;;;9.70;99.90;;;;;;5070406;28;20383;-87
2021/12/14 09:10:28;;;;;;;;;;;9.30;99.90;;;;;;5072570;28;19924;-87
2021/12/14 09:12:59;;;;;;;;;;;9.40;99.90;;;;;;5082101;28;19944;-87
2021/12/14 09:15:27;;;;;;;;;;;9.40;99.90;;;;;;5079842;28;20547;-87
2021/12/14 09:17:56;;;;;;;;;;;9.40;99.90;;;;;;5087159;28;20049;-87
2021/12/14 09:20:25;;;;;;;;;;;9.40;99.90;;;;;;5077730;28;19920;-88
2021/12/14 09:22:55;;;;;;;;;;;9.40;99.90;;;;;;5070398;28;20742;-86
2021/12/14 09:25:25;;;;;;;;;;;9.50;99.90;;;;;;5068016;28;19936;-87
2021/12/14 09:27:52;;;;;;;;;;;9.50;99.90;;;;;;5068990;28;19977;-87
2021/12/14 09:30:20;;;;;;;;;;;9.50;99.90;;;;;;5069717;28;20373;-87
2021/12/14 09:32:47;;;;;;;;;;;9.60;99.90;;;;;;5073780;28;19924;-87
2021/12/14 09:35:17;;;;;;;;;;;9.60;99.90;;;;;;5072054;28;20011;-87
2021/12/14 09:37:46;;;;;;;;;;;9.70;99.90;;;;;;5072987;28;20034;-87
2021/12/14 09:40:23;;;;;;;;;;;9.60;99.90;;;;;;5071037;28;19938;-87
2021/12/14 09:42:50;;;;;;;;;;;9.70;99.90;;;;;;5072668;28;19950;-87
2021/12/14 09:45:18;;;;;;;;;;;9.70;99.90;;;;;;5076063;28;20677;-87
2021/12/14 09:47:45;;;;;;;;;;;9.70;99.90;;;;;;5083093;28;19916;-87
2021/12/14 09:50:13;;;;;;;;;;;9.80;99.90;;;;;;5085020;28;19963;-87
2021/12/14 09:52:43;;;;;;;;;;;9.80;99.90;;;;;;5073690;28;19963;-87
2021/12/14 09:55:12;;;;;;;;;;;9.90;99.90;;;;;;5071699;28;19931;-87
2021/12/14 09:57:43;;;;;;;;;;;9.90;99.90;;;;;;5065648;28;19936;-87
2021/12/14 10:00:12;;;;;;;;;;;10.00;99.90;;;;;;5065578;28;19932;-86
2021/12/14 10:02:41;;;;;;;;;;;10.10;99.90;;;;;;5066647;28;19925;-86
2021/12/14 10:05:10;;;;;;;;;;;10.10;99.90;;;;;;5068575;28;19960;-86
2021/12/14 10:07:38;;;;;;;;;;;10.10;99.90;;;;;;5084892;28;19977;-87
2021/12/14 10:10:07;;;;;;;;;;;10.20;99.90;;;;;;5072634;28;20009;-87
2021/12/14 10:12:49;;;;;;;;;;;10.20;99.90;;;;;;5072422;28;19928;-86
2021/12/14 10:15:17;;;;;;;;;;;10.20;99.90;;;;;;5073421;28;20497;-86
2021/12/14 10:17:45;;;;;;;;;;;10.20;99.90;;;;;;5075010;28;19955;-87
2021/12/14 10:20:17;;;;;;;;;;;10.20;99.90;;;;;;5072080;28;19921;-86
2021/12/14 10:22:48;;;;;;;;;;;10.20;99.90;;;;;;5074417;28;19920;-86
2021/12/14 10:25:17;;;;;;;;;;;10.20;99.90;;;;;;5071681;28;19929;-86
2021/12/14 10:27:46;;;;;;;;;;;10.20;99.90;;;;;;5072311;28;19921;-86
2021/12/14 10:30:16;;;;;;;;;;;10.20;99.90;;;;;;5071610;28;20623;-86
2021/12/14 10:32:43;;;;;;;;;;;10.20;99.90;;;;;;5058770;28;19928;-86
2021/12/14 10:35:15;;;;;;;;;;;10.20;99.90;;;;;;5074083;28;19935;-86
2021/12/14 10:37:53;;;;;;;;;;;10.20;99.90;;;;;;5074701;28;19987;-85
2021/12/14 10:43:15;;;;;;;;;;;10.20;99.90;;;;;;5072949;28;19932;-87
2021/12/14 10:45:46;;;;;;;;;;;10.20;99.90;;;;;;5076671;28;19943;-86
2021/12/14 10:48:13;;;;;;;;;;;10.20;99.90;;;;;;5073712;28;20126;-86
2021/12/14 10:50:40;;;;;;;;;;;10.30;99.90;;;;;;5075222;28;19920;-86
2021/12/14 10:53:08;;;;;;;;;;;10.30;99.90;;;;;;5074975;28;19924;-86
2021/12/14 10:55:39;;;;;;;;;;;10.30;99.90;;;;;;5074734;28;20007;-87
2021/12/14 10:58:06;;;;;;;;;;;10.30;99.90;;;;;;5069493;28;19924;-88
2021/12/14 11:00:36;;;;;;;;;;;10.40;99.90;;;;;;5071504;28;20295;-88
2021/12/14 11:03:07;;;;;;;;;;;10.40;99.90;;;;;;5072332;28;19921;-87
2021/12/14 11:05:34;;;;;;;;;;;10.40;99.90;;;;;;5071614;28;19932;-88
2021/12/14 11:08:04;;;;;;;;;;;10.40;99.90;;;;;;5070712;28;19928;-87
2021/12/14 11:10:34;;;;;;;;;;;10.50;99.90;;;;;;5068698;28;19979;-88
2021/12/14 11:13:04;;;;;;;;;;;10.50;99.90;;;;;;5069069;28;20388;-87
2021/12/14 11:15:35;;;;;;;;;;;10.50;99.90;;;;;;5072327;28;19921;-87
2021/12/14 11:18:11;;;;;;;;;;;10.60;99.90;;;;;;5072399;28;20427;-87
2021/12/14 11:20:40;;;;;;;;;;;10.60;99.90;;;;;;5073093;28;20004;-87
2021/12/14 11:23:09;;;;;;;;;;;10.60;99.90;;;;;;5074699;28;19943;-88
2021/12/14 11:25:44;;;;;;;;;;;10.60;99.90;;;;;;5073630;28;19955;-88
2021/12/14 11:28:24;;;;;;;;;;;10.60;99.90;;;;;;5095415;28;19931;-87
2021/12/14 11:30:53;;;;;;;;;;;10.60;99.90;;;;;;5078622;28;20350;-88
2021/12/14 11:33:22;;;;;;;;;;;10.50;99.90;;;;;;5071154;28;19924;-88
2021/12/14 11:35:54;;;;;;;;;;;10.60;99.90;;;;;;5072391;28;19924;-88
2021/12/14 11:38:29;;;;;;;;;;;10.60;99.90;;;;;;5071856;28;19920;-87
2021/12/14 11:40:57;;;;;;;;;;;10.50;99.90;;;;;;5070995;28;19924;-88
2021/12/14 11:43:26;;;;;;;;;;;10.60;99.90;;;;;;5070387;28;19932;-88
2021/12/14 11:45:53;;;;;;;;;;;10.60;99.90;;;;;;5069978;28;19920;-87
2021/12/14 11:48:28;;;;;;;;;;;10.60;99.90;;;;;;5071259;28;20260;-88
2021/12/14 11:50:58;;;;;;;;;;;10.60;99.90;;;;;;5072031;28;20652;-88
2021/12/14 11:53:26;;;;;;;;;;;10.60;99.90;;;;;;5073468;28;19946;-87
2021/12/14 11:55:55;;;;;;;;;;;10.60;99.90;;;;;;5071546;28;20292;-87
2021/12/14 11:58:30;;;;;;;;;;;10.60;99.90;;;;;;5074402;28;19931;-88
2021/12/14 12:01:01;;;;;;;;;;;10.60;99.90;;;;;;5075031;28;19924;-88
2021/12/14 12:03:33;;;;;;;;;;;10.60;99.90;;;;;;5075567;28;20015;-89
2021/12/14 12:06:08;;;;;;;;;;;10.60;99.90;;;;;;5065690;28;19936;-88
2021/12/14 12:11:24;;;;;;;;;;;10.70;99.90;;;;;;5076842;28;19987;-88
2021/12/14 12:13:52;;;;;;;;;;;10.80;99.90;;;;;;5079222;28;20007;-88
2021/12/14 12:16:21;;;;;;;;;;;10.80;99.90;;;;;;5080920;28;19950;-87
2021/12/14 12:19:09;;;;;;;;;;;10.80;99.90;;;;;;5078688;28;19975;-88
2021/12/14 12:21:36;;;;;;;;;;;;;;;;;;5075604;28;19929;-87
2021/12/14 12:24:04;;;;;;;;;;;10.70;99.90;;;;;;5073282;28;20007;-88
2021/12/14 12:26:31;;;;;;;;;;;10.70;99.90;;;;;;5055948;28;19988;-87
2021/12/14 12:29:06;;;;;;;;;;;10.70;99.90;;;;;;5074402;28;19924;-89
2021/12/14 12:31:46;;;;;;;;;;;10.80;99.90;;;;;;5073116;28;19920;-87
2021/12/14 12:34:13;;;;;;;;;;;10.90;99.90;;;;;;5074466;28;19976;-88
2021/12/14 12:36:42;;;;;;;;;;;11.00;99.90;;;;;;5073696;28;19935;-87
2021/12/14 12:39:15;;;;;;;;;;;11.00;99.90;;;;;;5073151;28;20515;-87
2021/12/14 12:41:47;;;;;;;;;;;11.10;99.90;;;;;;5072945;28;19921;-87
2021/12/14 12:44:17;;;;;;;;;;;11.80;99.90;;;;;;5073781;28;19928;-87
2021/12/14 12:46:45;;;;;;;;;;;11.20;99.90;;;;;;5075221;28;19948;-87
2021/12/14 12:49:14;;;;;;;;;;;11.20;99.90;;;;;;5078787;28;19943;-87
2021/12/14 12:51:43;;;;;;;;;;;11.30;99.90;;;;;;5082868;28;19950;-87
2021/12/14 12:54:11;;;;;;;;;;;11.30;99.90;;;;;;5086501;28;19924;-86
2021/12/14 12:56:40;;;;;;;;;;;11.40;99.90;;;;;;5084584;28;19920;-87
2021/12/14 12:59:08;;;;;;;;;;;11.50;99.90;;;;;;5089731;28;20027;-87
2021/12/14 13:01:40;;;;;;;;;;;11.60;99.90;;;;;;5089910;28;19916;-87
2021/12/14 13:04:07;;;;;;;;;;;11.60;99.90;;;;;;5088442;28;19928;-87
2021/12/14 13:06:36;;;;;;;;;;;11.60;99.90;;;;;;5075172;28;19959;-88
2021/12/14 13:09:06;;;;;;;;;;;11.60;99.90;;;;;;5086096;28;20000;-86
2021/12/14 13:11:36;;;;;;;;;;;11.60;99.90;;;;;;5086472;28;19934;-86
2021/12/14 13:14:07;;;;;;;;;;;11.70;99.90;;;;;;5086603;28;19916;-86
2021/12/14 13:16:34;;;;;;;;;;;11.80;99.90;;;;;;5088925;28;19951;-86
2021/12/14 13:19:04;;;;;;;;;;;11.80;99.90;;;;;;5089280;28;19928;-86
2021/12/14 13:21:43;;;;;;;;;;;11.80;99.90;;;;;;5087884;28;19921;-87
2021/12/14 13:24:18;;;;;;;;;;;11.70;99.90;;;;;;5075881;28;19935;-87
2021/12/14 13:26:47;;;;;;;;;;;11.70;99.90;;;;;;5068769;28;19925;-87
2021/12/14 13:29:16;;;;;;;;;;;11.70;99.90;;;;;;5072917;28;20333;-87
2021/12/14 13:31:44;;;;;;;;;;;11.70;99.90;;;;;;5065798;28;19925;-87
2021/12/14 13:34:14;;;;;;;;;;;11.70;99.90;;;;;;5065625;28;19921;-86
2021/12/14 13:36:42;;;;;;;;;;;11.60;99.90;;;;;;5064961;28;20003;-86
2021/12/14 13:39:11;;;;;;;;;;;11.70;99.90;;;;;;5064906;28;19954;-87
2021/12/14 13:41:48;;;;;;;;;;;11.70;99.90;;;;;;5064874;28;19924;-87
2021/12/14 13:44:16;;;;;;;;;;;11.70;99.90;;;;;;5066868;28;19940;-87
2021/12/14 13:46:44;;;;;;;;;;;11.70;99.90;;;;;;5065752;28;19931;-87
2021/12/14 13:49:13;;;;;;;;;;;11.60;99.90;;;;;;5071213;28;19924;-87
2021/12/14 13:51:42;;;;;;;;;;;11.60;99.90;;;;;;5074579;28;20015;-87
2021/12/14 13:54:10;;;;;;;;;;;11.60;99.90;;;;;;5072645;28;19926;-87
2021/12/14 13:56:39;;;;;;;;;;;11.60;99.90;;;;;;5073381;28;19972;-87
2021/12/14 13:59:07;;;;;;;;;;;11.60;99.90;;;;;;5073914;28;19936;-87
2021/12/14 14:01:41;;;;;;;;;;;11.50;99.90;;;;;;5079824;28;19927;-87
2021/12/14 14:04:10;;;;;;;;;;;11.50;99.90;;;;;;5069120;28;20019;-88
2021/12/14 14:06:41;;;;;;;;;;;11.40;99.90;;;;;;5068036;28;20553;-86
2021/12/14 14:09:09;;;;;;;;;;;11.40;99.90;;;;;;5073285;28;19930;-87
2021/12/14 14:11:40;;;;;;;;;;;11.30;99.90;;;;;;5073304;28;19920;-86
2021/12/14 14:14:11;;;;;;;;;;;11.30;99.90;;;;;;5078928;28;19921;-87
2021/12/14 14:16:41;;;;;;;;;;;11.20;99.90;;;;;;5074835;28;19960;-87
2021/12/14 14:19:11;;;;;;;;;;;11.20;99.90;;;;;;5068772;28;20380;-87
2021/12/14 14:21:42;;;;;;;;;;;11.10;99.90;;;;;;5066861;28;19991;-87
2021/12/14 14:24:17;;;;;;;;;;;11.00;99.90;;;;;;5067808;28;20406;-88
2021/12/14 14:26:46;;;;;;;;;;;8.30;99.90;;;;;;5066571;28;19973;-87
2021/12/14 14:29:14;;;;;;;;;;;10.90;99.90;;;;;;5066955;28;19924;-87
2021/12/14 14:31:45;;;;;;;;;;;10.90;99.90;;;;;;5069568;28;19924;-87
2021/12/14 14:34:29;;;;;;;;;;;10.90;99.90;;;;;;5067400;28;20440;-88
2021/12/14 14:37:00;;;;;;;;;;;10.80;99.90;;;;;;5066700;28;22394;-87
2021/12/14 14:39:31;;;;;;;;;;;10.80;99.90;;;;;;5066079;28;19924;-88
2021/12/14 14:41:59;;;;;;;;;;;;;;;;;;5066484;28;19926;-87
2021/12/14 14:44:31;;;;;;;;;;;10.50;99.90;;;;;;5066345;28;19947;-87
2021/12/14 14:47:06;;;;;;;;;;;10.70;99.90;;;;;;5067609;28;20678;-88
2021/12/14 14:50:07;;;;;;;;;;;10.70;99.90;;;;;;5065105;28;19970;-88
2021/12/14 14:52:37;;;;;;;;;;;10.70;99.90;;;;;;5060276;28;19925;-88
2021/12/14 14:55:12;;;;;;;;;;;10.70;99.90;;;;;;5065266;28;20007;-87
2021/12/14 14:57:50;;;;;;;;;;;10.60;99.90;;;;;;5065877;28;19982;-87
2021/12/14 15:00:27;;;;;;;;;;;10.70;99.90;;;;;;5065877;28;19920;-87
2021/12/14 15:02:54;;;;;;;;;;;10.60;99.90;;;;;;5067670;28;19931;-87
2021/12/14 15:05:28;;;;;;;;;;;10.70;99.90;;;;;;5077398;28;19920;-88
2021/12/14 15:08:05;;;;;;;;;;;10.60;99.90;;;;;;5077805;28;19978;-88
2021/12/14 15:10:35;;;;;;;;;;;10.50;99.90;;;;;;5087808;28;19932;-88